Extreme high temperature From: 23-07-2018 05:00 Until: 24-07-2018 01:00 warning for: Extreme high temperature Level: Yellow info button
suomi:
Hellevaroitus: Lähivuorokauden aikana on odotettavissa tukalaa hellettä.

svenska:
Varning för värmebölja: Under det närmaste dygnet är den svåra hettan att vänta.

english:
Heat wave warning: Warm weather is expected during the coming 24 hours. 


Thunder radar more information blitzortung!


Löydät sääaseman tiedot myös:

European Weather Network

Finland Weather Exchange

Weather Underground

AWEKAS



Weather Underground säähistoriasivu

Päivittäin yhteenveto Elokuu 20, 2017 Yksiköt:  Englantilaiset    Metriset   Molemmat
« Edellinen Päivä
Seuraava Päivä »
Päivittäin Viikoittain Kuukausittain Vuosittain Mukautettu
  Korkea: Matala: Keskiarvo:
Lämpötila: TemperatureC °F 12.8 °F 15.4 °F
Kastepiste: DewpointC °F 10.5 °F 11.8 °F
Kosteus: Humidity % 63 % 79 %
Tuulen nopeus: WindSpeedKMH mph 1.6 mph 7.9 mph
Tuulenpuuska: WindSpeedGustKMH mph - -
Tuuli:- - SSW
Ilmanpaine: PressurehPa in 1002.9 in -
Sade: 0.0 in    
Historical Graphs
 
 
Taulukkotiedot Elokuu 20, 2017
Aika Lämpötila Kastepiste Ilmanpaine Tuuli Tuulen nopeus Tuulenpuuska Kosteus Sademäärä (tunneittain)
TemperatureC °F DewpointC °F PressurehPa in Calm     Humidity % HourlyPrecipMM in
00:00 15.4 °F 14.1 °F 1002.9 in SSW 6.4 mph 17.7 mph 92 % 0.0 in
00:15 15.3 °F 13.9 °F 1003.3 in SSW 4.8 mph 17.7 mph 91 % 0.0 in
00:30 15.3 °F 13.5 °F 1003.3 in SSW 6.4 mph 14.5 mph 89 % 0.0 in
00:45 15.1 °F 13.5 °F 1003.3 in SSW 3.2 mph 12.9 mph 90 % 0.0 in
01:00 14.9 °F 13.3 °F 1003.6 in SSW 3.2 mph 11.3 mph 90 % 0.0 in
01:15 14.8 °F 13.0 °F 1003.6 in SSW 3.2 mph 9.7 mph 89 % 0.0 in
01:30 14.8 °F 13.0 °F 1003.9 in SSW 4.8 mph 16.1 mph 89 % 0.0 in
01:45 14.7 °F 12.7 °F 1003.9 in SSW 4.8 mph 12.9 mph 88 % 0.0 in
02:00 14.6 °F 12.8 °F 1003.9 in South 4.8 mph 14.5 mph 89 % 0.0 in
02:15 14.4 °F 12.7 °F 1004.3 in SSW 3.2 mph 12.9 mph 89 % 0.0 in
02:30 14.2 °F 12.6 °F 1004.3 in SSW 3.2 mph 9.7 mph 90 % 0.0 in
02:45 14.1 °F 12.4 °F 1004.3 in SSW 4.8 mph 12.9 mph 90 % 0.0 in
03:00 13.9 °F 12.3 °F 1004.3 in SSW 3.2 mph 9.7 mph 90 % 0.0 in
03:15 13.7 °F 12.3 °F 1004.6 in SSW 1.6 mph 8.0 mph 91 % 0.0 in
03:30 13.6 °F 12.1 °F 1004.6 in South 1.6 mph 16.1 mph 91 % 0.0 in
03:45 13.5 °F 12.1 °F 1004.6 in South 3.2 mph 12.9 mph 91 % 0.0 in
04:00 13.5 °F 11.9 °F 1004.6 in SSW 4.8 mph 16.1 mph 90 % 0.0 in
04:15 13.4 °F 11.8 °F 1004.6 in SSW 4.8 mph 11.3 mph 90 % 0.0 in
04:30 13.3 °F 11.6 °F 1005.0 in SSW 3.2 mph 12.9 mph 89 % 0.0 in
04:45 13.2 °F 11.6 °F 1004.6 in SSW 3.2 mph 12.9 mph 90 % 0.0 in
05:00 13.1 °F 11.3 °F 1004.6 in SSW 4.8 mph 12.9 mph 89 % 0.0 in
05:15 12.9 °F 11.1 °F 1004.6 in SSW 1.6 mph 9.7 mph 89 % 0.0 in
05:30 12.9 °F 11.3 °F 1004.6 in SSW 3.2 mph 12.9 mph 90 % 0.0 in
05:45 12.8 °F 11.2 °F 1004.6 in South 4.8 mph 17.7 mph 90 % 0.0 in
06:00 12.9 °F 11.3 °F 1005.0 in SSW 4.8 mph 14.5 mph 90 % 0.0 in
06:30 12.8 °F 11.3 °F 1005.0 in South 3.2 mph 11.3 mph 91 % 0.0 in
06:45 12.8 °F 11.4 °F 1005.3 in SSW 4.8 mph 17.7 mph 91 % 0.0 in
07:00 13.1 °F 11.6 °F 1005.3 in SSW 6.4 mph 16.1 mph 91 % 0.0 in
07:15 13.3 °F 11.7 °F 1005.3 in SSW 6.4 mph 14.5 mph 90 % 0.0 in
07:30 13.6 °F 12.0 °F 1005.6 in South 6.4 mph 19.3 mph 90 % 0.0 in
07:45 13.8 °F 12.1 °F 1005.6 in SSW 8.0 mph 20.9 mph 89 % 0.0 in
08:00 14.1 °F 12.1 °F 1006.0 in SSW 6.4 mph 19.3 mph 88 % 0.0 in
08:15 14.3 °F 12.0 °F 1006.0 in South 9.7 mph 25.7 mph 86 % 0.0 in
08:30 14.6 °F 12.2 °F 1005.6 in SSW 9.7 mph 32.2 mph 86 % 0.0 in
08:45 14.8 °F 12.3 °F 1006.0 in SSW 8.0 mph 22.5 mph 85 % 0.0 in
09:00 15.2 °F 12.5 °F 1005.6 in SSW 11.3 mph 32.2 mph 84 % 0.0 in
09:15 15.4 °F 12.6 °F 1006.0 in SSW 12.9 mph 33.8 mph 83 % 0.0 in
09:30 15.8 °F 12.5 °F 1006.0 in SSW 12.9 mph 29.0 mph 81 % 0.0 in
09:45 16.1 °F 12.8 °F 1006.0 in SSW 9.7 mph 24.1 mph 81 % 0.0 in
10:00 16.4 °F 12.8 °F 1006.0 in SSW 11.3 mph 29.0 mph 79 % 0.0 in
10:15 16.6 °F 12.7 °F 1006.3 in SSW 9.7 mph 22.5 mph 78 % 0.0 in
10:30 16.2 °F 11.9 °F 1006.7 in SSW 12.9 mph 35.4 mph 76 % 0.0 in
10:45 16.1 °F 11.9 °F 1006.7 in SSW 9.7 mph 32.2 mph 76 % 0.0 in
11:00 16.6 °F 11.9 °F 1006.7 in SSW 11.3 mph 25.7 mph 74 % 0.0 in
11:15 16.2 °F 12.1 °F 1007.0 in SSW 9.7 mph 22.5 mph 77 % 0.0 in
11:30 16.2 °F 12.0 °F 1007.0 in SSW 9.7 mph 24.1 mph 76 % 0.0 in
11:45 16.4 °F 12.2 °F 1007.0 in SSW 12.9 mph 27.4 mph 76 % 0.0 in
12:00 16.7 °F 12.5 °F 1007.0 in SSW 11.3 mph 27.4 mph 76 % 0.0 in
12:15 16.8 °F 11.9 °F 1007.3 in SSW 12.9 mph 33.8 mph 73 % 0.0 in
12:30 16.9 °F 12.3 °F 1007.3 in SSW 12.9 mph 27.4 mph 74 % 0.0 in
12:45 17.0 °F 11.9 °F 1007.0 in SSW 14.5 mph 30.6 mph 72 % 0.0 in
13:00 17.5 °F 12.0 °F 1007.0 in SSW 12.9 mph 29.0 mph 70 % 0.0 in
13:15 17.0 °F 12.3 °F 1007.3 in SSW 12.9 mph 29.0 mph 74 % 0.0 in
13:30 17.6 °F 12.7 °F 1007.3 in SSW 8.0 mph 24.1 mph 73 % 0.0 in
13:45 17.3 °F 12.0 °F 1007.3 in SSW 16.1 mph 30.6 mph 71 % 0.0 in
14:00 17.1 °F 12.0 °F 1007.7 in SSW 11.3 mph 32.2 mph 72 % 0.0 in
14:15 17.1 °F 12.4 °F 1007.7 in SSW 9.7 mph 29.0 mph 74 % 0.0 in
14:30 17.4 °F 12.3 °F 1007.7 in SSW 9.7 mph 29.0 mph 72 % 0.0 in
14:45 17.4 °F 11.9 °F 1007.7 in SSW 12.9 mph 32.2 mph 70 % 0.0 in
15:00 17.6 °F 12.0 °F 1007.7 in SSW 12.9 mph 27.4 mph 70 % 0.0 in
15:15 18.1 °F 12.1 °F 1008.0 in SSW 12.9 mph 27.4 mph 68 % 0.0 in
15:30 18.3 °F 12.0 °F 1008.0 in SSW 14.5 mph 29.0 mph 67 % 0.0 in
15:45 18.3 °F 12.3 °F 1008.0 in SSW 11.3 mph 24.1 mph 68 % 0.0 in
16:00 18.3 °F 11.6 °F 1007.7 in SSW 14.5 mph 30.6 mph 65 % 0.0 in
16:15 18.6 °F 11.9 °F 1007.7 in SSW 12.9 mph 32.2 mph 65 % 0.0 in
16:30 18.4 °F 11.5 °F 1008.0 in SSW 16.1 mph 41.8 mph 64 % 0.0 in
16:45 18.3 °F 11.2 °F 1008.0 in SSW 16.1 mph 38.6 mph 63 % 0.0 in
17:00 18.3 °F 11.1 °F 1008.0 in SSW 14.5 mph 33.8 mph 63 % 0.0 in
17:15 18.3 °F 11.6 °F 1008.0 in SSW 12.9 mph 32.2 mph 65 % 0.0 in
17:30 17.7 °F 10.6 °F 1008.0 in SSW 11.3 mph 33.8 mph 63 % 0.0 in
17:45 17.8 °F 10.6 °F 1008.0 in SSW 12.9 mph 27.4 mph 63 % 0.0 in
18:00 17.9 °F 10.7 °F 1008.0 in SSW 9.7 mph 35.4 mph 63 % 0.0 in
18:15 17.8 °F 11.1 °F 1008.0 in SSW 9.7 mph 25.7 mph 65 % 0.0 in
18:30 17.3 °F 10.7 °F 1008.0 in SSW 9.7 mph 32.2 mph 65 % 0.0 in
18:45 17.3 °F 10.9 °F 1008.0 in SSW 9.7 mph 25.7 mph 66 % 0.0 in
19:00 17.2 °F 10.5 °F 1008.0 in SSW 9.7 mph 29.0 mph 65 % 0.0 in
19:15 17.0 °F 10.8 °F 1008.0 in SSW 8.0 mph 17.7 mph 67 % 0.0 in
19:30 16.8 °F 10.8 °F 1008.0 in SSW 11.3 mph 29.0 mph 68 % 0.0 in
19:45 16.6 °F 11.1 °F 1007.7 in SSW 6.4 mph 17.7 mph 70 % 0.0 in
20:00 16.4 °F 11.4 °F 1008.0 in SSW 8.0 mph 20.9 mph 72 % 0.0 in
20:15 16.3 °F 11.4 °F 1008.0 in SSW 6.4 mph 14.5 mph 73 % 0.0 in
20:30 16.1 °F 11.4 °F 1008.0 in SSW 6.4 mph 16.1 mph 74 % 0.0 in
20:45 15.8 °F 11.4 °F 1008.4 in SSW 4.8 mph 11.3 mph 75 % 0.0 in
21:00 15.6 °F 11.5 °F 1008.4 in SSW 4.8 mph 14.5 mph 77 % 0.0 in
21:15 15.3 °F 11.5 °F 1008.4 in SSW 4.8 mph 11.3 mph 78 % 0.0 in
21:30 15.1 °F 11.6 °F 1008.4 in SSW 3.2 mph 11.3 mph 80 % 0.0 in
21:45 14.8 °F 11.7 °F 1008.4 in SSW 3.2 mph 11.3 mph 82 % 0.0 in
22:00 14.6 °F 11.8 °F 1008.4 in SSW 4.8 mph 17.7 mph 83 % 0.0 in
22:15 14.4 °F 11.8 °F 1008.4 in SSW 3.2 mph 11.3 mph 84 % 0.0 in
22:30 14.3 °F 11.8 °F 1008.4 in SSW 4.8 mph 11.3 mph 85 % 0.0 in
22:45 14.2 °F 11.9 °F 1008.4 in SSW 3.2 mph 11.3 mph 86 % 0.0 in
23:00 14.1 °F 11.9 °F 1008.4 in SSW 4.8 mph 17.7 mph 87 % 0.0 in
23:15 14.0 °F 11.9 °F 1008.4 in SSW 4.8 mph 11.3 mph 87 % 0.0 in
23:30 13.8 °F 11.9 °F 1008.4 in SSW 3.2 mph 16.1 mph 88 % 0.0 in
23:45 13.7 °F 11.8 °F 1008.4 in South 3.2 mph 9.7 mph 88 % 0.0 in
Esan sääasema
Terveisin Weather Underground - 2.75 mb

Alkuperäinen skripti  Jim McMurry - jmcmurry@mwt.net Sovitettu myös templatelle  Wim van der Kuil - Leuven-Template.eu

Laitteet joita käytämme:

Sääasema
Davis VP2

Sääasemaohjelma
Cumulus

Sääaseman tietokone
Asus EeePC

Palveluntarjoaja
Suncomet

Davis VP2

Cumulus

Asus EeePC

Suncomet